createdAt,value
2023-05-10T00:00:48.781Z,132.09
2023-05-10T00:01:48.812Z,130.70
2023-05-10T00:02:48.892Z,131.55
2023-05-10T00:03:49.053Z,133.14
2023-05-10T00:04:48.918Z,130.72
2023-05-10T00:05:49.030Z,133.21
2023-05-10T00:06:49.014Z,130.53
2023-05-10T00:07:49.062Z,130.46
2023-05-10T00:08:49.129Z,130.23
2023-05-10T00:09:49.123Z,131.35
2023-05-10T00:10:49.657Z,130.52
2023-05-10T00:11:49.265Z,132.55
2023-05-10T00:12:49.369Z,133.84
2023-05-10T00:13:49.375Z,132.37
2023-05-10T00:14:49.488Z,131.93
2023-05-10T00:15:49.476Z,133.14
2023-05-10T00:16:49.572Z,131.10
2023-05-10T00:17:49.686Z,131.35
2023-05-10T00:18:49.624Z,129.40
2023-05-10T00:19:49.608Z,131.17
2023-05-10T00:20:49.683Z,130.25
2023-05-10T00:21:49.743Z,132.80
2023-05-10T00:22:49.746Z,131.74
2023-05-10T00:23:49.774Z,131.51
2023-05-10T00:24:49.858Z,133.20
2023-05-10T00:25:49.895Z,130.91
2023-05-10T00:26:49.974Z,130.43
2023-05-10T00:27:50.018Z,130.90
2023-05-10T00:28:50.019Z,134.97
2023-05-10T00:29:50.084Z,132.33
2023-05-10T00:30:50.123Z,132.17
2023-05-10T00:31:50.290Z,130.56
2023-05-10T00:32:50.274Z,130.66
2023-05-10T00:33:50.306Z,131.89
2023-05-10T00:34:50.329Z,131.60
2023-05-10T00:35:50.370Z,133.13
2023-05-10T00:36:50.440Z,133.39
2023-05-10T00:37:50.494Z,132.74
2023-05-10T00:38:50.569Z,134.54
2023-05-10T00:39:50.563Z,132.20
2023-05-10T00:40:50.615Z,131.76
2023-05-10T00:41:50.682Z,131.81
2023-05-10T00:42:50.723Z,132.55
2023-05-10T00:43:50.807Z,134.09
2023-05-10T00:44:50.848Z,132.77
2023-05-10T00:45:50.905Z,134.84
2023-05-10T00:46:50.953Z,131.31
2023-05-10T00:47:51.056Z,133.61
2023-05-10T00:48:51.034Z,133.02
2023-05-10T00:49:51.096Z,129.04
2023-05-10T00:50:51.142Z,133.82
2023-05-10T00:51:51.274Z,129.14
2023-05-10T00:52:51.282Z,130.76
2023-05-10T00:53:51.310Z,131.95
2023-05-10T00:54:51.392Z,129.61
2023-05-10T00:55:51.447Z,129.33
2023-05-10T00:56:51.541Z,132.80
2023-05-10T00:57:51.548Z,132.63
2023-05-10T00:58:51.640Z,131.37
2023-05-10T00:59:51.658Z,134.67
2023-05-10T01:00:51.866Z,130.94
2023-05-10T01:01:51.901Z,134.86
2023-05-10T01:02:51.947Z,128.44
2023-05-10T01:03:51.903Z,130.94
2023-05-10T01:04:52.049Z,133.35
2023-05-10T01:05:52.016Z,133.86
2023-05-10T01:06:52.086Z,134.05
2023-05-10T01:07:52.196Z,133.24
2023-05-10T01:08:52.214Z,134.45
2023-05-10T01:09:52.274Z,134.05
2023-05-10T01:10:52.317Z,132.61
2023-05-10T01:11:52.415Z,130.04
2023-05-10T01:12:52.457Z,133.81
2023-05-10T01:13:52.541Z,131.09
2023-05-10T01:14:52.604Z,132.86
2023-05-10T01:15:52.729Z,132.34
2023-05-10T01:16:52.718Z,132.79
2023-05-10T01:17:52.780Z,132.37
2023-05-10T01:18:52.850Z,131.53
2023-05-10T01:19:52.898Z,133.29
2023-05-10T01:20:52.958Z,132.42
2023-05-10T01:21:53.012Z,131.62
2023-05-10T01:22:53.134Z,132.02
2023-05-10T01:23:53.156Z,135.36
2023-05-10T01:24:53.238Z,135.50
2023-05-10T01:25:53.248Z,134.65
2023-05-10T01:26:53.357Z,136.79
2023-05-10T01:27:53.358Z,134.57
2023-05-10T01:28:53.473Z,134.28
2023-05-10T01:30:05.069Z,139.21
2023-05-10T01:30:54.553Z,139.30
2023-05-10T01:31:53.486Z,137.32
2023-05-10T01:32:53.536Z,135.54
2023-05-10T01:33:53.500Z,136.66
2023-05-10T01:34:53.461Z,135.15
2023-05-10T01:35:53.474Z,134.36
2023-05-10T01:36:53.476Z,133.54
2023-05-10T01:37:53.430Z,135.25
2023-05-10T01:38:53.440Z,135.85
2023-05-10T01:39:53.516Z,137.03
2023-05-10T01:40:53.565Z,135.94
2023-05-10T01:41:53.598Z,136.35
2023-05-10T01:42:53.679Z,136.47
2023-05-10T01:43:53.716Z,135.61
2023-05-10T01:44:53.783Z,135.91
2023-05-10T01:45:53.896Z,136.30
2023-05-10T01:46:53.996Z,136.80
2023-05-10T01:47:53.984Z,135.34
2023-05-10T01:48:54.052Z,136.40
2023-05-10T01:49:54.156Z,136.01
2023-05-10T01:50:54.171Z,137.64
2023-05-10T01:51:54.251Z,136.26
2023-05-10T01:52:54.359Z,136.79
2023-05-10T01:53:54.355Z,134.72
2023-05-10T01:54:54.392Z,139.36
2023-05-10T01:55:54.477Z,133.53
2023-05-10T01:56:54.577Z,138.79
2023-05-10T01:57:54.594Z,138.65
2023-05-10T01:58:54.647Z,136.98
2023-05-10T01:59:54.754Z,137.75
2023-05-10T02:00:54.884Z,137.65
2023-05-10T02:01:54.857Z,134.81
2023-05-10T02:02:54.984Z,136.56
2023-05-10T02:03:55.032Z,138.95
2023-05-10T02:04:55.041Z,136.27
2023-05-10T02:05:55.112Z,136.97
2023-05-10T02:06:55.155Z,135.91
2023-05-10T02:07:55.222Z,137.43
2023-05-10T02:08:55.275Z,136.10
2023-05-10T02:09:55.313Z,136.41
2023-05-10T02:10:55.416Z,137.61
2023-05-10T02:11:55.403Z,138.79
2023-05-10T02:12:55.479Z,135.60
2023-05-10T02:13:55.522Z,135.37
2023-05-10T02:14:55.522Z,140.99
2023-05-10T02:15:55.581Z,140.99
2023-05-10T02:16:55.687Z,139.81
2023-05-10T02:17:55.695Z,136.23
2023-05-10T02:18:55.693Z,134.88
2023-05-10T02:19:55.705Z,134.04
2023-05-10T02:20:55.880Z,138.39
2023-05-10T02:21:55.817Z,135.89
2023-05-10T02:22:55.893Z,138.51
2023-05-10T02:23:55.946Z,140.89
2023-05-10T02:24:55.975Z,139.24
2023-05-10T02:25:56.008Z,136.50
2023-05-10T02:26:56.015Z,136.32
2023-05-10T02:27:56.131Z,140.50
2023-05-10T02:28:56.189Z,137.38
2023-05-10T02:29:56.215Z,136.14
2023-05-10T02:30:56.207Z,140.24
2023-05-10T02:31:56.349Z,138.22
2023-05-10T02:32:56.322Z,137.89
2023-05-10T02:33:56.320Z,135.83
2023-05-10T02:34:56.485Z,139.82
2023-05-10T02:35:56.430Z,137.90
2023-05-10T02:36:56.490Z,137.95
2023-05-10T02:37:56.528Z,138.68
2023-05-10T02:38:56.543Z,138.60
2023-05-10T02:39:56.784Z,137.66
2023-05-10T02:40:56.618Z,138.20
2023-05-10T02:41:56.638Z,141.00
2023-05-10T02:42:56.683Z,139.13
2023-05-10T02:43:56.686Z,136.99
2023-05-10T02:44:56.754Z,138.12
2023-05-10T02:45:56.723Z,137.27
2023-05-10T02:46:56.732Z,141.29
2023-05-10T02:47:56.802Z,137.11
2023-05-10T02:48:56.724Z,137.46
2023-05-10T02:49:56.756Z,139.77
2023-05-10T02:50:56.806Z,141.99
2023-05-10T02:51:57.220Z,137.14
2023-05-10T02:52:56.857Z,138.66
2023-05-10T02:53:56.886Z,139.49
2023-05-10T02:54:56.950Z,139.23
2023-05-10T02:55:56.888Z,136.99
2023-05-10T02:56:56.950Z,137.84
2023-05-10T02:57:57.010Z,140.38
2023-05-10T02:58:56.992Z,139.48
2023-05-10T02:59:57.030Z,139.91
2023-05-10T03:00:57.066Z,138.49
2023-05-10T03:01:57.677Z,137.63
2023-05-10T03:02:57.245Z,138.66
2023-05-10T03:03:57.193Z,139.15
2023-05-10T03:04:57.421Z,138.28
2023-05-10T03:05:57.241Z,141.39
2023-05-10T03:06:57.317Z,142.71
2023-05-10T03:07:57.325Z,139.66
2023-05-10T03:08:57.338Z,139.29
2023-05-10T03:09:57.369Z,138.81
2023-05-10T03:10:57.449Z,141.28
2023-05-10T03:11:57.405Z,140.43
2023-05-10T03:12:57.449Z,140.55
2023-05-10T03:13:57.483Z,138.28
2023-05-10T03:14:57.484Z,138.85
2023-05-10T03:15:57.614Z,138.25
2023-05-10T03:16:57.495Z,141.67
2023-05-10T03:17:57.512Z,139.57
2023-05-10T03:18:57.550Z,140.92
2023-05-10T03:19:57.582Z,141.90
2023-05-10T03:20:57.554Z,140.27
2023-05-10T03:21:57.595Z,138.87
2023-05-10T03:22:57.538Z,139.12
2023-05-10T03:23:57.585Z,137.19
2023-05-10T03:24:57.549Z,139.52
2023-05-10T03:25:57.617Z,141.12
2023-05-10T03:26:57.669Z,138.85
2023-05-10T03:27:57.606Z,139.21
2023-05-10T03:28:57.613Z,140.05
2023-05-10T03:29:57.588Z,140.67
2023-05-10T03:30:57.706Z,140.50
2023-05-10T03:31:57.604Z,140.13
2023-05-10T03:32:57.681Z,137.24
2023-05-10T03:33:57.601Z,137.83
2023-05-10T03:34:57.577Z,139.68
2023-05-10T03:35:57.630Z,139.79
2023-05-10T03:36:57.621Z,140.49
2023-05-10T03:37:57.647Z,138.63
2023-05-10T03:38:57.645Z,140.69
2023-05-10T03:39:57.609Z,144.49
2023-05-10T03:40:57.653Z,143.33
2023-05-10T03:41:57.620Z,140.28
2023-05-10T03:42:57.561Z,140.18
2023-05-10T03:43:57.582Z,141.75
2023-05-10T03:44:57.587Z,141.55
2023-05-10T03:45:57.548Z,140.86
2023-05-10T03:46:57.775Z,140.11
2023-05-10T03:47:57.585Z,140.52
2023-05-10T03:48:57.534Z,140.39
2023-05-10T03:49:57.631Z,142.23
2023-05-10T03:50:57.554Z,140.29
2023-05-10T03:51:57.538Z,140.78
2023-05-10T03:52:57.571Z,141.92
2023-05-10T03:53:57.568Z,139.52
2023-05-10T03:54:57.542Z,138.83
2023-05-10T03:55:57.559Z,143.12
2023-05-10T03:56:57.768Z,142.29
2023-05-10T03:57:57.524Z,143.61
2023-05-10T03:58:57.510Z,139.43
2023-05-10T03:59:57.537Z,142.06
2023-05-10T04:00:57.554Z,143.07
2023-05-10T04:01:57.542Z,141.99
2023-05-10T04:02:57.586Z,140.92
2023-05-10T04:03:57.603Z,142.27
2023-05-10T04:04:57.531Z,141.00
2023-05-10T04:05:57.524Z,139.98
2023-05-10T04:06:57.532Z,141.47
2023-05-10T04:07:57.557Z,140.13
2023-05-10T04:08:57.551Z,143.01
2023-05-10T04:09:57.489Z,139.89
2023-05-10T04:10:57.511Z,138.56
2023-05-10T04:11:57.488Z,139.12
2023-05-10T04:12:57.553Z,140.47
2023-05-10T04:13:57.546Z,140.35
2023-05-10T04:14:57.521Z,138.14
2023-05-10T04:15:57.487Z,138.99
2023-05-10T04:16:57.644Z,135.35
2023-05-10T04:17:57.571Z,135.79
2023-05-10T04:18:57.511Z,138.74
2023-05-10T04:19:57.532Z,135.65
2023-05-10T04:20:57.481Z,136.78
2023-05-10T04:21:57.458Z,138.32
2023-05-10T04:22:57.489Z,135.99
2023-05-10T04:23:57.499Z,136.48
2023-05-10T04:24:57.483Z,135.64
2023-05-10T04:25:57.516Z,136.66
2023-05-10T04:26:57.988Z,135.22
2023-05-10T04:27:57.461Z,133.46
2023-05-10T04:28:57.472Z,136.64
2023-05-10T04:29:57.479Z,137.64
2023-05-10T04:30:57.555Z,138.80
2023-05-10T04:31:57.523Z,136.28
2023-05-10T04:32:57.607Z,137.34
2023-05-10T04:33:57.432Z,133.01
2023-05-10T04:34:57.632Z,135.88
2023-05-10T04:35:57.478Z,137.99
2023-05-10T04:36:57.477Z,134.12
2023-05-10T04:37:57.462Z,134.09
2023-05-10T04:38:57.459Z,135.82
2023-05-10T04:39:57.501Z,137.88
2023-05-10T04:40:57.464Z,137.40
2023-05-10T04:41:57.462Z,137.62
2023-05-10T04:42:57.468Z,134.32
2023-05-10T04:43:57.474Z,134.54
2023-05-10T04:44:57.492Z,136.73
2023-05-10T04:45:57.511Z,135.36
2023-05-10T04:46:57.488Z,134.05
2023-05-10T04:47:57.493Z,135.95
2023-05-10T04:48:57.463Z,137.00
2023-05-10T04:49:57.475Z,135.28
2023-05-10T04:50:57.414Z,137.54
2023-05-10T04:51:57.480Z,137.90
2023-05-10T04:52:57.451Z,139.55
2023-05-10T04:54:06.047Z,137.68
2023-05-10T04:54:58.468Z,137.81
2023-05-10T04:55:57.465Z,137.80
2023-05-10T04:56:57.448Z,135.66
2023-05-10T04:57:57.389Z,131.99
2023-05-10T04:58:57.430Z,117.32
2023-05-10T04:59:57.422Z,102.61
2023-05-10T05:00:57.379Z,92.07
2023-05-10T05:01:57.485Z,84.96
2023-05-10T05:02:57.459Z,80.41
2023-05-10T05:03:57.490Z,75.45
2023-05-10T05:04:57.414Z,67.47
2023-05-10T05:05:57.390Z,68.02
2023-05-10T05:06:57.361Z,56.62
2023-05-10T05:07:57.487Z,53.86
2023-05-10T05:08:57.378Z,57.33
2023-05-10T05:09:57.505Z,49.90
2023-05-10T05:10:57.464Z,47.58
2023-05-10T05:11:57.476Z,49.60
2023-05-10T05:12:57.547Z,45.24
2023-05-10T05:13:57.531Z,44.10
2023-05-10T05:14:57.582Z,47.72
2023-05-10T05:15:57.672Z,46.95
2023-05-10T05:16:57.588Z,42.65
2023-05-10T05:17:57.676Z,42.40
2023-05-10T05:18:57.642Z,40.57
2023-05-10T05:19:57.688Z,38.14
2023-05-10T05:20:57.724Z,40.85
2023-05-10T05:21:57.805Z,40.32
2023-05-10T05:22:57.809Z,39.60
2023-05-10T05:23:57.854Z,30.19
2023-05-10T05:24:57.885Z,29.90
2023-05-10T05:25:57.975Z,27.33
2023-05-10T05:26:58.076Z,25.57
2023-05-10T05:27:58.071Z,25.00
2023-05-10T05:28:58.150Z,25.00
2023-05-10T05:29:58.202Z,30.01
2023-05-10T05:30:58.268Z,30.75
2023-05-10T05:31:58.404Z,38.72
2023-05-10T05:32:58.477Z,45.55
2023-05-10T05:33:58.437Z,40.78
2023-05-10T05:34:58.466Z,42.71
2023-05-10T05:35:58.547Z,38.35
2023-05-10T05:36:58.817Z,33.35
2023-05-10T05:37:58.664Z,25.46
2023-05-10T05:38:58.724Z,29.76
2023-05-10T05:39:58.796Z,33.29
2023-05-10T05:40:58.899Z,24.57
2023-05-10T05:41:58.951Z,25.00
2023-05-10T05:42:58.961Z,29.91
2023-05-10T05:43:59.070Z,27.73
2023-05-10T05:44:59.038Z,27.77
2023-05-10T05:45:59.327Z,29.49
2023-05-10T05:46:59.084Z,40.97
2023-05-10T05:47:59.537Z,49.02
2023-05-10T05:48:59.286Z,58.77
2023-05-10T05:49:59.145Z,62.75
2023-05-10T05:50:59.154Z,70.62
2023-05-10T05:51:59.268Z,74.01
2023-05-10T05:52:59.346Z,82.39
2023-05-10T05:53:59.488Z,87.89
2023-05-10T05:54:59.598Z,96.44
2023-05-10T05:55:59.813Z,104.93
2023-05-10T05:57:01.179Z,113.27
2023-05-10T05:57:59.730Z,121.62
2023-05-10T05:58:59.886Z,127.49
2023-05-10T05:59:59.808Z,134.29
2023-05-10T06:00:59.811Z,139.87
2023-05-10T06:01:59.924Z,146.60
2023-05-10T06:03:00.472Z,157.02
2023-05-10T06:03:59.946Z,167.43
2023-05-10T06:05:00.364Z,172.48
2023-05-10T06:05:59.886Z,174.28
2023-05-10T06:06:59.904Z,179.97
2023-05-10T06:07:59.892Z,185.54
2023-05-10T06:08:59.921Z,184.44
2023-05-10T06:10:00.326Z,192.99
2023-05-10T06:10:59.923Z,196.95
2023-05-10T06:11:59.948Z,202.49
2023-05-10T06:13:00.335Z,207.96
2023-05-10T06:13:59.960Z,213.30
2023-05-10T06:14:59.949Z,213.66
2023-05-10T06:15:59.952Z,219.28
2023-05-10T06:17:00.005Z,224.20
2023-05-10T06:18:00.210Z,223.16
2023-05-10T06:19:00.031Z,227.13
2023-05-10T06:20:00.142Z,226.33
2023-05-10T06:21:00.139Z,231.33
2023-05-10T06:22:00.244Z,237.41
2023-05-10T06:23:00.270Z,240.71
2023-05-10T06:24:00.329Z,246.59
2023-05-10T06:25:00.372Z,249.95
2023-05-10T06:26:00.461Z,249.49
2023-05-10T06:27:00.500Z,249.58
2023-05-10T06:28:00.596Z,250.43
2023-05-10T06:29:00.612Z,247.59
2023-05-10T06:30:11.594Z,250.00
2023-05-10T06:31:01.670Z,250.31
2023-05-10T06:32:00.634Z,251.19
2023-05-10T06:33:00.677Z,253.37
2023-05-10T06:34:00.647Z,261.40
2023-05-10T06:35:00.586Z,265.09
2023-05-10T06:36:00.599Z,247.66
2023-05-10T06:37:00.612Z,245.61
2023-05-10T06:38:00.612Z,242.16
2023-05-10T06:39:00.629Z,217.64
2023-05-10T06:40:00.622Z,190.38
2023-05-10T06:41:00.708Z,181.13
2023-05-10T06:42:00.677Z,179.98
2023-05-10T06:43:00.680Z,172.18
2023-05-10T06:44:00.811Z,165.45
2023-05-10T06:45:00.713Z,163.87
2023-05-10T06:46:00.835Z,163.46
2023-05-10T06:47:00.792Z,163.25
2023-05-10T06:48:00.738Z,162.75
2023-05-10T06:49:00.694Z,170.26
2023-05-10T06:50:00.817Z,173.10
2023-05-10T06:51:00.714Z,172.51
2023-05-10T06:52:00.715Z,172.35
2023-05-10T06:53:00.705Z,174.35
2023-05-10T06:54:00.671Z,172.15
2023-05-10T06:55:00.742Z,170.20
2023-05-10T06:56:00.750Z,169.04
2023-05-10T06:57:01.851Z,169.70
2023-05-10T06:58:00.701Z,170.37
2023-05-10T06:59:00.781Z,169.16
2023-05-10T07:00:00.739Z,175.32
2023-05-10T07:01:00.682Z,181.92
2023-05-10T07:02:00.684Z,178.54
2023-05-10T07:03:00.913Z,172.67
2023-05-10T07:04:00.805Z,166.88
2023-05-10T07:05:02.874Z,166.98
2023-05-10T07:06:01.669Z,167.06
2023-05-10T07:07:00.653Z,164.20
2023-05-10T07:08:00.667Z,161.81
2023-05-10T07:09:00.671Z,159.29
2023-05-10T07:10:00.617Z,154.83
2023-05-10T07:11:00.642Z,151.69
2023-05-10T07:12:00.646Z,168.73
2023-05-10T07:13:00.708Z,175.90
2023-05-10T07:14:00.626Z,180.21
2023-05-10T07:15:00.611Z,181.66
2023-05-10T07:16:00.634Z,182.58
2023-05-10T07:17:00.576Z,187.10
2023-05-10T07:18:00.778Z,187.94
2023-05-10T07:19:00.649Z,189.90
2023-05-10T07:20:00.795Z,192.05
2023-05-10T07:21:00.763Z,193.53
2023-05-10T07:22:00.813Z,198.64
2023-05-10T07:23:00.954Z,201.88
2023-05-10T07:24:00.877Z,204.48
2023-05-10T07:25:01.004Z,206.11
2023-05-10T07:26:01.381Z,208.23
2023-05-10T07:27:01.079Z,212.40
2023-05-10T07:28:01.423Z,214.94
2023-05-10T07:29:01.163Z,217.04
2023-05-10T07:30:01.243Z,223.63
2023-05-10T07:31:01.366Z,224.24
2023-05-10T07:32:01.352Z,207.93
2023-05-10T07:33:01.370Z,189.19
2023-05-10T07:34:01.678Z,175.51
2023-05-10T07:35:01.427Z,163.75
2023-05-10T07:36:01.454Z,153.29
2023-05-10T07:37:01.482Z,148.94
2023-05-10T07:38:01.490Z,141.83
2023-05-10T07:39:01.731Z,138.09
2023-05-10T07:40:01.561Z,143.90
2023-05-10T07:41:01.553Z,145.12
2023-05-10T07:42:01.607Z,141.79
2023-05-10T07:43:01.678Z,147.17
2023-05-10T07:44:01.624Z,151.30
2023-05-10T07:45:01.729Z,147.22
2023-05-10T07:46:01.753Z,148.60
2023-05-10T07:47:01.716Z,147.97
2023-05-10T07:48:01.805Z,143.44
2023-05-10T07:49:01.734Z,137.29
2023-05-10T07:50:01.777Z,139.28
2023-05-10T07:51:01.723Z,138.19
2023-05-10T07:52:01.740Z,141.87
2023-05-10T07:53:01.758Z,141.06
2023-05-10T07:54:01.750Z,137.26
2023-05-10T07:55:01.774Z,134.56
2023-05-10T07:56:01.810Z,133.31
2023-05-10T07:57:01.716Z,134.29
2023-05-10T07:58:01.710Z,137.75
2023-05-10T07:59:01.742Z,139.16
2023-05-10T08:00:01.727Z,139.62
2023-05-10T08:01:01.817Z,141.96
2023-05-10T08:02:01.845Z,144.67
2023-05-10T08:03:01.902Z,148.01
2023-05-10T08:04:02.587Z,150.14
2023-05-10T08:05:01.815Z,150.64
2023-05-10T08:06:01.868Z,149.38
2023-05-10T08:07:02.053Z,150.23
2023-05-10T08:08:01.956Z,151.30
2023-05-10T08:09:02.049Z,155.64
2023-05-10T08:10:02.084Z,160.76
2023-05-10T08:11:02.175Z,163.18
2023-05-10T08:12:02.345Z,157.78
2023-05-10T08:13:02.353Z,156.89
2023-05-10T08:14:02.408Z,167.54
2023-05-10T08:15:02.421Z,169.02
2023-05-10T08:16:02.489Z,170.07
2023-05-10T08:17:02.513Z,171.89
2023-05-10T08:18:02.905Z,173.54
2023-05-10T08:19:02.734Z,179.03
2023-05-10T08:20:02.715Z,183.62
2023-05-10T08:21:02.759Z,184.38
2023-05-10T08:22:03.051Z,185.42
2023-05-10T08:23:02.960Z,183.00
2023-05-10T08:24:02.940Z,185.33
2023-05-10T08:25:03.050Z,193.77
2023-05-10T08:26:03.108Z,176.73
2023-05-10T08:27:03.160Z,160.46
2023-05-10T08:28:03.168Z,154.15
2023-05-10T08:29:03.183Z,143.33
2023-05-10T08:30:03.154Z,137.94
2023-05-10T08:31:03.257Z,138.29
2023-05-10T08:32:03.230Z,133.33
2023-05-10T08:33:03.373Z,122.65
2023-05-10T08:34:03.354Z,119.14
2023-05-10T08:35:04.037Z,102.50
2023-05-10T08:36:03.459Z,103.28
2023-05-10T08:37:03.511Z,108.13
2023-05-10T08:38:03.551Z,114.19
2023-05-10T08:39:03.584Z,112.36
2023-05-10T08:40:03.691Z,122.03
2023-05-10T08:41:03.706Z,133.12
2023-05-10T08:42:03.724Z,135.35
2023-05-10T08:43:03.850Z,130.40
2023-05-10T08:44:03.828Z,140.00
2023-05-10T08:45:05.360Z,139.61
2023-05-10T08:46:03.993Z,147.39
2023-05-10T08:47:03.964Z,155.27
2023-05-10T08:48:04.845Z,159.16
2023-05-10T08:49:03.917Z,168.13
2023-05-10T08:50:03.939Z,168.32
2023-05-10T08:51:03.925Z,174.92
2023-05-10T08:52:03.898Z,182.23
2023-05-10T08:53:03.900Z,184.09
2023-05-10T08:54:03.963Z,191.35
2023-05-10T08:55:04.017Z,194.04
2023-05-10T08:56:04.065Z,197.93
2023-05-10T08:57:04.147Z,206.39
2023-05-10T08:58:04.872Z,209.72
2023-05-10T08:59:04.256Z,209.29
2023-05-10T09:00:04.301Z,214.81
2023-05-10T09:01:04.375Z,221.18
2023-05-10T09:02:04.371Z,226.23
2023-05-10T09:03:04.451Z,229.55
2023-05-10T09:04:04.526Z,235.08
2023-05-10T09:05:04.699Z,239.47
2023-05-10T09:06:04.605Z,244.56
2023-05-10T09:07:04.552Z,249.66
2023-05-10T09:08:04.664Z,247.25
2023-05-10T09:09:04.625Z,243.58
2023-05-10T09:10:04.842Z,248.03
2023-05-10T09:11:04.762Z,250.00
2023-05-10T09:12:04.772Z,249.48
2023-05-10T09:13:04.762Z,247.69
2023-05-10T09:14:04.762Z,257.80
2023-05-10T09:15:04.936Z,246.81
2023-05-10T09:16:19.912Z,250.00
2023-05-10T09:17:05.854Z,250.00
2023-05-10T09:18:04.791Z,236.96
2023-05-10T09:19:04.845Z,213.56
2023-05-10T09:20:05.361Z,205.85
2023-05-10T09:21:04.954Z,196.83
2023-05-10T09:22:04.756Z,184.63
2023-05-10T09:23:04.772Z,179.34
2023-05-10T09:24:04.723Z,171.60
2023-05-10T09:25:04.731Z,168.56
2023-05-10T09:26:04.734Z,160.56
2023-05-10T09:27:04.903Z,165.38
2023-05-10T09:28:04.693Z,173.06
2023-05-10T09:29:04.715Z,183.58
2023-05-10T09:30:04.688Z,192.90
2023-05-10T09:31:04.708Z,197.02
2023-05-10T09:32:04.712Z,200.92
2023-05-10T09:33:04.872Z,201.18
2023-05-10T09:34:04.787Z,169.43
2023-05-10T09:35:04.864Z,150.55
2023-05-10T09:36:04.903Z,133.03
2023-05-10T09:37:04.920Z,121.03
2023-05-10T09:38:04.969Z,114.95
2023-05-10T09:39:04.939Z,119.47
2023-05-10T09:40:04.950Z,124.32
2023-05-10T09:41:05.008Z,127.01
2023-05-10T09:42:04.983Z,132.32
2023-05-10T09:43:04.965Z,134.90
2023-05-10T09:44:05.070Z,141.46
2023-05-10T09:45:05.165Z,143.13
2023-05-10T09:46:05.177Z,145.13
2023-05-10T09:47:05.198Z,147.49
2023-05-10T09:48:05.257Z,146.67
2023-05-10T09:49:05.318Z,150.61
2023-05-10T09:50:05.318Z,147.54
2023-05-10T09:51:05.380Z,156.26
2023-05-10T09:52:05.433Z,158.74
2023-05-10T09:53:05.582Z,163.73
2023-05-10T09:54:05.539Z,166.25
2023-05-10T09:55:05.659Z,169.67
2023-05-10T09:56:05.607Z,171.78
2023-05-10T09:57:06.410Z,173.25
2023-05-10T09:58:05.682Z,176.94
2023-05-10T09:59:05.720Z,177.13
2023-05-10T10:00:05.824Z,179.32
2023-05-10T10:01:05.849Z,185.51
2023-05-10T10:02:05.885Z,185.84
2023-05-10T10:03:06.549Z,188.99
2023-05-10T10:04:05.957Z,193.15
2023-05-10T10:05:05.866Z,195.40
2023-05-10T10:06:09.420Z,196.73
2023-05-10T10:07:06.934Z,196.96
2023-05-10T10:08:05.891Z,198.27
2023-05-10T10:09:05.897Z,200.05
2023-05-10T10:10:05.795Z,203.83
2023-05-10T10:11:05.800Z,210.85
2023-05-10T10:12:05.846Z,214.05
2023-05-10T10:13:05.840Z,215.50
2023-05-10T10:14:05.951Z,217.33
2023-05-10T10:15:05.796Z,219.00
2023-05-10T10:16:05.906Z,220.77
2023-05-10T10:17:08.737Z,223.14
2023-05-10T10:18:05.937Z,225.79
2023-05-10T10:19:05.776Z,227.41
2023-05-10T10:20:05.781Z,228.53
2023-05-10T10:21:05.973Z,230.23
2023-05-10T10:22:05.928Z,232.70
2023-05-10T10:23:05.747Z,233.54
2023-05-10T10:24:05.794Z,233.37
2023-05-10T10:25:06.411Z,234.88
2023-05-10T10:26:06.452Z,236.12
2023-05-10T10:27:05.776Z,236.93
2023-05-10T10:28:05.723Z,236.32
2023-05-10T10:29:05.727Z,236.18
2023-05-10T10:30:05.906Z,225.37
2023-05-10T10:31:05.724Z,220.59
2023-05-10T10:32:06.430Z,203.46
2023-05-10T10:33:13.546Z,184.46
2023-05-10T10:34:06.698Z,184.86
2023-05-10T10:35:06.342Z,185.94
2023-05-10T10:36:05.668Z,189.17
2023-05-10T10:37:05.669Z,197.59
2023-05-10T10:38:05.647Z,213.09
2023-05-10T10:39:05.646Z,215.36
2023-05-10T10:40:05.664Z,215.77
2023-05-10T10:41:05.922Z,215.51
2023-05-10T10:42:05.726Z,215.80
2023-05-10T10:43:05.605Z,217.03
2023-05-10T10:44:05.626Z,221.57
2023-05-10T10:45:05.598Z,224.41
2023-05-10T10:46:05.600Z,224.04
2023-05-10T10:47:05.604Z,221.09
2023-05-10T10:48:05.666Z,222.43
2023-05-10T10:49:05.963Z,228.94
2023-05-10T10:50:05.571Z,232.03
2023-05-10T10:51:05.577Z,370.51
2023-05-10T10:52:05.591Z,267.98
2023-05-10T10:53:05.637Z,233.02
2023-05-10T10:54:05.585Z,225.11
2023-05-10T10:55:05.567Z,219.49
2023-05-10T10:56:05.575Z,214.12
2023-05-10T10:57:05.579Z,213.96
2023-05-10T10:58:05.525Z,215.71
2023-05-10T10:59:05.535Z,213.55
2023-05-10T11:00:05.537Z,216.21
2023-05-10T11:01:05.587Z,216.94
2023-05-10T11:02:05.503Z,217.86
2023-05-10T11:03:05.705Z,219.11
2023-05-10T11:04:05.515Z,221.98
2023-05-10T11:05:05.551Z,222.62
2023-05-10T11:06:05.486Z,224.79
2023-05-10T11:07:05.483Z,225.97
2023-05-10T11:08:05.499Z,229.21
2023-05-10T11:09:05.446Z,230.67
2023-05-10T11:10:05.511Z,235.00
2023-05-10T11:11:05.922Z,234.17
2023-05-10T11:12:06.426Z,234.86
2023-05-10T11:13:05.440Z,235.02
2023-05-10T11:14:05.431Z,238.90
2023-05-10T11:15:05.437Z,241.62
2023-05-10T11:16:05.444Z,242.54
2023-05-10T11:17:05.461Z,248.42
2023-05-10T11:18:05.482Z,246.72
2023-05-10T11:19:05.603Z,247.09
2023-05-10T11:20:05.457Z,242.04
2023-05-10T11:21:05.472Z,231.85
2023-05-10T11:22:05.488Z,217.06
2023-05-10T11:23:05.486Z,201.56
2023-05-10T11:24:05.484Z,179.43
2023-05-10T11:25:05.509Z,148.87
2023-05-10T11:26:05.548Z,134.54
2023-05-10T11:27:05.575Z,116.29
2023-05-10T11:28:05.617Z,100.76
2023-05-10T11:29:05.678Z,79.83
2023-05-10T11:30:05.719Z,65.09
2023-05-10T11:31:05.834Z,47.53
2023-05-10T11:32:05.732Z,38.32
2023-05-10T11:33:05.846Z,30.39
2023-05-10T11:34:05.770Z,25.00
2023-05-10T11:35:05.822Z,26.86
2023-05-10T11:36:05.786Z,25.43
2023-05-10T11:37:05.825Z,25.38
2023-05-10T11:38:05.852Z,25.00
2023-05-10T11:39:05.866Z,24.96
2023-05-10T11:40:05.848Z,25.00
2023-05-10T11:41:05.875Z,25.96
2023-05-10T11:42:05.951Z,25.00
2023-05-10T11:43:05.943Z,25.00
2023-05-10T11:44:05.952Z,25.32
2023-05-10T11:45:05.940Z,26.05
2023-05-10T11:46:06.028Z,25.85
2023-05-10T11:47:06.021Z,24.74
2023-05-10T11:48:06.106Z,29.10
2023-05-10T11:49:06.016Z,25.00
2023-05-10T11:50:06.083Z,28.71
2023-05-10T11:51:06.093Z,26.46
2023-05-10T11:52:06.142Z,28.12
2023-05-10T11:53:06.211Z,24.46
2023-05-10T11:54:06.162Z,25.00
2023-05-10T11:55:06.269Z,30.11
2023-05-10T11:56:06.226Z,27.21
2023-05-10T11:57:06.287Z,24.31
2023-05-10T11:58:06.314Z,25.00
2023-05-10T11:59:06.343Z,26.43
2023-05-10T12:00:06.343Z,28.74
2023-05-10T12:01:06.450Z,32.47
2023-05-10T12:02:06.485Z,33.81
2023-05-10T12:03:06.555Z,39.78
2023-05-10T12:04:06.837Z,52.23
2023-05-10T12:05:06.672Z,63.47
2023-05-10T12:06:06.598Z,64.55
2023-05-10T12:07:06.716Z,64.73
2023-05-10T12:08:06.628Z,69.92
2023-05-10T12:09:06.669Z,77.50
2023-05-10T12:10:06.728Z,80.05
2023-05-10T12:11:06.701Z,85.75
2023-05-10T12:12:06.727Z,92.21
2023-05-10T12:13:08.170Z,97.44
2023-05-10T12:14:06.711Z,96.90
2023-05-10T12:15:06.746Z,108.55
2023-05-10T12:16:06.756Z,114.60
2023-05-10T12:17:06.725Z,119.72
2023-05-10T12:18:06.768Z,128.79
2023-05-10T12:19:06.820Z,135.74
2023-05-10T12:20:06.793Z,142.51
2023-05-10T12:21:06.861Z,149.10
2023-05-10T12:22:06.978Z,152.63
2023-05-10T12:23:07.013Z,158.93
2023-05-10T12:24:07.011Z,159.85
2023-05-10T12:25:07.089Z,165.00
2023-05-10T12:26:07.168Z,169.90
2023-05-10T12:27:07.206Z,173.54
2023-05-10T12:28:07.209Z,175.28
2023-05-10T12:29:07.267Z,180.65
2023-05-10T12:30:07.266Z,185.23
2023-05-10T12:31:07.491Z,190.01
2023-05-10T12:32:07.454Z,182.82